Weather at 110 West Ash Building Helipad

Public forecast

Using degrees Fahrenheit for public forecast. Weather courtesy of forecast.io.

Closest aviation weather report (METAR) to 110 West Ash Building Helipad

Closest report is San Diego International Airport, 1.3 nm (2.5 km) NW.

2024/07/19 06:17 (retrieved 26 minutes ago)

KSAN 190617Z 31004KT 10SM SCT013 20/17 A3001 RMK AO2 T02000167

Closest aviation forecast (TAF) to 110 West Ash Building Helipad

Closest forecast is San Diego International Airport, 1.3 nm (2.5 km) NW.

2024/07/19 06:22 (retrieved 21 minutes ago)

TAF KSAN 190520Z 1906/2012 VRB04KT P6SM BKN012 FM191700 28008KT P6SM SCT017 FM200400 VRB04KT P6SM BKN015